createdAt,value
2018-09-08T00:00:52.211Z,94967.57
2018-09-08T00:03:21.901Z,94975.27
2018-09-08T00:05:51.951Z,94973.05
2018-09-08T00:08:21.789Z,94975.13
2018-09-08T00:10:51.874Z,94969.34
2018-09-08T00:13:21.711Z,94971.89
2018-09-08T00:15:56.489Z,94975.80
2018-09-08T00:18:31.043Z,94975.77
2018-09-08T00:21:05.819Z,94970.05
2018-09-08T00:23:40.577Z,94974.05
2018-09-08T00:26:15.134Z,94976.45
2018-09-08T00:28:50.549Z,94974.28
2018-09-08T00:31:21.366Z,94974.79
2018-09-08T00:33:50.882Z,94972.53
2018-09-08T00:36:20.426Z,94975.08
2018-09-08T00:38:50.430Z,94974.05
2018-09-08T00:41:20.143Z,94972.03
2018-09-08T00:43:50.124Z,94979.55
2018-09-08T00:46:20.281Z,94983.93
2018-09-08T00:48:49.730Z,94976.58
2018-09-08T00:51:19.516Z,94977.99
2018-09-08T00:53:49.340Z,94979.97
2018-09-08T00:56:19.067Z,94985.02
2018-09-08T00:58:53.997Z,94989.39
2018-09-08T01:01:23.574Z,94981.30
2018-09-08T01:03:53.211Z,94994.11
2018-09-08T01:06:22.779Z,94984.41
2018-09-08T01:08:52.873Z,94982.62
2018-09-08T01:11:22.423Z,94993.58
2018-09-08T01:13:52.281Z,94991.23
2018-09-08T01:16:22.588Z,94998.77
2018-09-08T01:18:52.619Z,95001.20
2018-09-08T01:21:22.201Z,95008.70
2018-09-08T01:23:54.421Z,95006.39
2018-09-08T01:26:24.525Z,95011.68
2018-09-08T01:28:54.133Z,95016.97
2018-09-08T01:31:23.714Z,95006.97
2018-09-08T01:33:53.179Z,95011.33
2018-09-08T01:36:22.734Z,95002.27
2018-09-08T01:38:52.299Z,95006.28
2018-09-08T01:41:22.074Z,95005.53
2018-09-08T01:43:51.786Z,95000.33
2018-09-08T01:46:21.596Z,94998.47
2018-09-08T01:48:51.117Z,95000.68
2018-09-08T01:51:20.914Z,94994.97
2018-09-08T01:53:50.701Z,95005.80
2018-09-08T01:56:20.742Z,95004.95
2018-09-08T01:58:51.290Z,95005.30
2018-09-08T02:01:21.051Z,95012.57
2018-09-08T02:03:50.638Z,95000.44
2018-09-08T02:06:20.145Z,95007.25
2018-09-08T02:08:50.208Z,95007.11
2018-09-08T02:11:20.118Z,95007.09
2018-09-08T02:13:49.746Z,95009.52
2018-09-08T02:16:19.628Z,95014.90
2018-09-08T02:18:49.153Z,95003.08
2018-09-08T02:21:18.757Z,95001.70
2018-09-08T02:23:48.588Z,95003.34
2018-09-08T02:26:18.226Z,95006.70
2018-09-08T02:28:47.877Z,95005.94
2018-09-08T02:31:18.003Z,95002.78
2018-09-08T02:33:47.417Z,95006.88
2018-09-08T02:36:16.919Z,95004.00
2018-09-08T02:38:46.575Z,95002.63
2018-09-08T02:41:17.429Z,95006.81
2018-09-08T02:43:46.875Z,95015.09
2018-09-08T02:46:16.849Z,95020.07
2018-09-08T02:48:46.398Z,95018.00
2018-09-08T02:51:14.565Z,95010.48
2018-09-08T02:53:43.070Z,95009.49
2018-09-08T02:56:11.331Z,95009.67
2018-09-08T02:58:39.432Z,95013.12
2018-09-08T03:01:08.281Z,95012.97
2018-09-08T03:03:36.420Z,95020.64
2018-09-08T03:06:04.551Z,95026.97
2018-09-08T03:08:32.766Z,95025.23
2018-09-08T03:11:00.953Z,95031.27
2018-09-08T03:13:29.079Z,95027.94
2018-09-08T03:15:57.198Z,95031.67
2018-09-08T03:18:25.303Z,95025.47
2018-09-08T03:20:53.658Z,95027.95
2018-09-08T03:23:21.873Z,95028.53
2018-09-08T03:25:50.001Z,95029.61
2018-09-08T03:28:18.138Z,95026.47
2018-09-08T03:30:46.476Z,95031.80
2018-09-08T03:33:14.575Z,95022.56
2018-09-08T03:35:42.773Z,95027.60
2018-09-08T03:38:10.932Z,95029.95
2018-09-08T03:40:38.983Z,95030.48
2018-09-08T03:43:07.326Z,95022.56
2018-09-08T03:45:35.452Z,95027.60
2018-09-08T03:48:03.598Z,95023.71
2018-09-08T03:50:32.012Z,95027.94
2018-09-08T03:53:00.176Z,95031.09
2018-09-08T03:55:28.320Z,95039.58
2018-09-08T03:57:57.627Z,95038.97
2018-09-08T04:00:25.821Z,95038.72
2018-09-08T04:02:56.146Z,95037.64
2018-09-08T04:05:25.919Z,95037.34
2018-09-08T04:07:55.390Z,95049.50
2018-09-08T04:10:24.967Z,95040.56
2018-09-08T04:12:54.837Z,95050.34
2018-09-08T04:15:24.310Z,95052.72
2018-09-08T04:17:53.936Z,95052.72
2018-09-08T04:20:23.653Z,95059.11
2018-09-08T04:22:53.205Z,95053.56
2018-09-08T04:25:22.826Z,95054.64
2018-09-08T04:27:52.819Z,95062.84
2018-09-08T04:30:22.452Z,95067.54
2018-09-08T04:32:52.050Z,95074.41
2018-09-08T04:35:22.955Z,95063.82
2018-09-08T04:37:52.535Z,95074.32
2018-09-08T04:40:22.214Z,95073.52
2018-09-08T04:42:52.177Z,95078.13
2018-09-08T04:45:21.625Z,95077.98
2018-09-08T04:47:51.250Z,95084.30
2018-09-08T04:50:21.687Z,95086.04
2018-09-08T04:52:51.269Z,95088.48
2018-09-08T04:55:21.194Z,95088.26
2018-09-08T04:57:51.546Z,95098.55
2018-09-08T05:00:21.419Z,95091.73
2018-09-08T05:02:50.820Z,95091.70
2018-09-08T05:05:20.499Z,95099.87
2018-09-08T05:07:49.860Z,95094.84
2018-09-08T05:10:19.316Z,95095.92
2018-09-08T05:12:48.900Z,95096.16
2018-09-08T05:15:18.383Z,95097.73
2018-09-08T05:17:48.178Z,95100.03
2018-09-08T05:20:17.943Z,95106.80
2018-09-08T05:22:47.599Z,95102.98
2018-09-08T05:25:17.412Z,95105.64
2018-09-08T05:27:47.008Z,95116.17
2018-09-08T05:30:17.064Z,95109.06
2018-09-08T05:32:46.870Z,95111.09
2018-09-08T05:35:16.689Z,95112.69
2018-09-08T05:37:46.397Z,95102.38
2018-09-08T05:40:16.097Z,95112.64
2018-09-08T05:42:46.342Z,95105.70
2018-09-08T05:45:16.112Z,95112.89
2018-09-08T05:47:45.952Z,95112.59
2018-09-08T05:50:15.575Z,95111.66
2018-09-08T05:52:45.267Z,95108.64
2018-09-08T05:55:14.664Z,95122.50
2018-09-08T05:57:44.399Z,95127.84
2018-09-08T06:00:14.005Z,95122.27
2018-09-08T06:02:43.645Z,95124.17
2018-09-08T06:05:13.555Z,95126.25
2018-09-08T06:07:43.213Z,95127.95
2018-09-08T06:10:12.976Z,95130.91
2018-09-08T06:12:42.862Z,95123.64
2018-09-08T06:15:12.241Z,95125.45
2018-09-08T06:17:41.966Z,95134.61
2018-09-08T06:20:11.597Z,95125.14
2018-09-08T06:22:41.414Z,95122.42
2018-09-08T06:25:10.898Z,95121.92
2018-09-08T06:27:40.409Z,95127.25
2018-09-08T06:30:09.896Z,95124.27
2018-09-08T06:32:39.598Z,95131.59
2018-09-08T06:35:10.000Z,95130.27
2018-09-08T06:37:39.647Z,95131.84
2018-09-08T06:40:09.152Z,95141.84
2018-09-08T06:42:39.257Z,95141.34
2018-09-08T06:45:09.112Z,95139.19
2018-09-08T06:47:38.890Z,95130.75
2018-09-08T06:50:08.764Z,95134.12
2018-09-08T06:52:38.336Z,95132.14
2018-09-08T06:55:07.836Z,95139.33
2018-09-08T06:57:37.473Z,95135.73
2018-09-08T07:00:07.808Z,95135.85
2018-09-08T07:02:37.318Z,95143.92
2018-09-08T07:05:07.371Z,95146.63
2018-09-08T07:07:36.953Z,95145.11
2018-09-08T07:10:07.212Z,95139.81
2018-09-08T07:12:37.189Z,95138.89
2018-09-08T07:15:07.382Z,95137.47
2018-09-08T07:17:37.149Z,95141.81
2018-09-08T07:20:07.527Z,95150.02
2018-09-08T07:22:37.114Z,95146.77
2018-09-08T07:25:07.426Z,95145.41
2018-09-08T07:27:36.800Z,95139.31
2018-09-08T07:30:06.335Z,95144.47
2018-09-08T07:32:36.098Z,95145.75
2018-09-08T07:35:06.080Z,95151.97
2018-09-08T07:37:35.471Z,95152.05
2018-09-08T07:40:05.174Z,95153.34
2018-09-08T07:42:35.331Z,95145.37
2018-09-08T07:45:05.031Z,95151.13
2018-09-08T07:47:34.725Z,95155.62
2018-09-08T07:50:04.461Z,95154.79
2018-09-08T07:52:33.962Z,95155.16
2018-09-08T07:55:03.536Z,95157.20
2018-09-08T07:57:33.495Z,95159.69
2018-09-08T08:00:03.190Z,95156.51
2018-09-08T08:02:32.592Z,95154.55
2018-09-08T08:05:02.684Z,95156.50
2018-09-08T08:07:32.097Z,95154.07
2018-09-08T08:10:01.708Z,95160.02
2018-09-08T08:12:31.461Z,95157.20
2018-09-08T08:15:01.223Z,95154.15
2018-09-08T08:17:30.643Z,95153.36
2018-09-08T08:20:00.169Z,95157.57
2018-09-08T08:22:29.670Z,95156.97
2018-09-08T08:24:59.206Z,95161.67
2018-09-08T08:27:29.210Z,95160.13
2018-09-08T08:29:58.874Z,95164.34
2018-09-08T08:32:28.745Z,95157.16
2018-09-08T08:34:58.630Z,95164.70
2018-09-08T08:37:28.125Z,95157.73
2018-09-08T08:39:57.639Z,95156.88
2018-09-08T08:42:27.965Z,95159.56
2018-09-08T08:44:57.301Z,95154.33
2018-09-08T08:47:26.825Z,95143.93
2018-09-08T08:50:07.853Z,95145.47
2018-09-08T08:52:48.825Z,95144.76
2018-09-08T08:55:18.673Z,95139.21
2018-09-08T08:57:48.325Z,95141.73
2018-09-08T09:00:17.925Z,95144.08
2018-09-08T09:02:48.032Z,95143.66
2018-09-08T09:05:17.766Z,95136.20
2018-09-08T09:07:47.390Z,95137.22
2018-09-08T09:10:17.238Z,95131.02
2018-09-08T09:12:46.772Z,95129.73
2018-09-08T09:15:16.637Z,95130.66
2018-09-08T09:17:46.469Z,95128.88
2018-09-08T09:20:26.960Z,95136.36
2018-09-08T09:23:08.002Z,95132.09
2018-09-08T09:25:37.481Z,95131.94
2018-09-08T09:28:07.088Z,95131.41
2018-09-08T09:30:36.644Z,95126.73
2018-09-08T09:33:06.093Z,95116.95
2018-09-08T09:35:35.756Z,95126.19
2018-09-08T09:38:06.045Z,95126.16
2018-09-08T09:40:35.550Z,95124.71
2018-09-08T09:43:05.148Z,95125.55
2018-09-08T09:45:35.339Z,95125.77
2018-09-08T09:48:05.006Z,95115.94
2018-09-08T09:50:34.485Z,95119.00
2018-09-08T09:53:04.882Z,95121.59
2018-09-08T09:55:34.577Z,95121.16
2018-09-08T09:58:04.121Z,95124.14
2018-09-08T10:00:38.695Z,95125.89
2018-09-08T10:03:08.463Z,95117.48
2018-09-08T10:05:37.881Z,95115.95
2018-09-08T10:08:07.259Z,95116.20
2018-09-08T10:10:36.952Z,95117.23
2018-09-08T10:13:06.789Z,95116.99
2018-09-08T10:15:36.850Z,95118.30
2018-09-08T10:18:06.828Z,95111.88
2018-09-08T10:20:36.341Z,95104.81
2018-09-08T10:23:06.958Z,95107.03
2018-09-08T10:25:36.489Z,95104.38
2018-09-08T10:28:06.203Z,95098.70
2018-09-08T10:30:36.286Z,95095.33
2018-09-08T10:33:05.923Z,95095.78
2018-09-08T10:35:35.477Z,95094.66
2018-09-08T10:38:05.553Z,95088.77
2018-09-08T10:40:35.257Z,95086.41
2018-09-08T10:43:04.844Z,95092.52
2018-09-08T10:45:35.124Z,95081.86
2018-09-08T10:48:04.648Z,95090.08
2018-09-08T10:50:34.934Z,95087.00
2018-09-08T10:53:04.933Z,95083.59
2018-09-08T10:55:34.405Z,95078.47
2018-09-08T10:58:04.203Z,95073.41
2018-09-08T11:00:34.266Z,95072.26
2018-09-08T11:03:03.839Z,95071.72
2018-09-08T11:05:33.593Z,95063.38
2018-09-08T11:08:03.765Z,95073.38
2018-09-08T11:10:33.222Z,95069.61
2018-09-08T11:13:03.032Z,95074.10
2018-09-08T11:15:32.823Z,95073.28
2018-09-08T11:18:02.557Z,95065.88
2018-09-08T11:20:32.365Z,95073.03
2018-09-08T11:23:03.118Z,95067.22
2018-09-08T11:25:32.712Z,95072.69
2018-09-08T11:28:02.209Z,95063.41
2018-09-08T11:30:32.581Z,95070.52
2018-09-08T11:33:02.042Z,95075.63
2018-09-08T11:35:31.832Z,95081.81
2018-09-08T11:38:01.327Z,95072.91
2018-09-08T11:40:30.987Z,95066.09
2018-09-08T11:43:00.441Z,95079.17
2018-09-08T11:45:30.221Z,95092.46
2018-09-08T11:47:59.903Z,95086.16
2018-09-08T11:50:29.361Z,95092.69
2018-09-08T11:52:59.315Z,95096.62
2018-09-08T11:55:29.061Z,95105.26
2018-09-08T11:57:58.770Z,95103.45
2018-09-08T12:00:28.418Z,95103.47
2018-09-08T12:02:58.122Z,95105.48
2018-09-08T12:05:27.579Z,95106.73
2018-09-08T12:07:57.541Z,95112.23
2018-09-08T12:10:27.002Z,95105.94
2018-09-08T12:12:56.406Z,95114.45
2018-09-08T12:15:26.626Z,95113.91
2018-09-08T12:17:55.970Z,95114.41
2018-09-08T12:20:25.525Z,95109.13
2018-09-08T12:22:54.922Z,95105.35
2018-09-08T12:25:24.702Z,95108.32
2018-09-08T12:27:54.191Z,95114.90
2018-09-08T12:30:24.401Z,95118.66
2018-09-08T12:32:53.688Z,95116.48
2018-09-08T12:35:23.239Z,95116.31
2018-09-08T12:37:53.148Z,95110.52
2018-09-08T12:40:22.662Z,95102.55
2018-09-08T12:42:52.206Z,95101.03
2018-09-08T12:45:22.192Z,95100.11
2018-09-08T12:47:51.524Z,95094.89
2018-09-08T12:50:21.022Z,95096.88
2018-09-08T12:52:50.807Z,95091.41
2018-09-08T12:55:20.417Z,95083.93
2018-09-08T12:57:50.075Z,95080.38
2018-09-08T13:00:19.603Z,95077.58
2018-09-08T13:02:49.290Z,95078.84
2018-09-08T13:05:18.850Z,95079.40
2018-09-08T13:07:48.721Z,95083.39
2018-09-08T13:10:18.529Z,95083.94
2018-09-08T13:12:48.337Z,95085.14
2018-09-08T13:15:18.473Z,95081.74
2018-09-08T13:17:47.959Z,95085.84
2018-09-08T13:20:17.468Z,95080.30
2018-09-08T13:22:47.386Z,95086.27
2018-09-08T13:25:16.936Z,95090.13
2018-09-08T13:27:46.715Z,95092.19
2018-09-08T13:30:17.562Z,95104.83
2018-09-08T13:32:47.250Z,95099.36
2018-09-08T13:35:16.868Z,95106.69
2018-09-08T13:37:46.791Z,95101.59
2018-09-08T13:40:16.283Z,95102.78
2018-09-08T13:42:45.559Z,95095.55
2018-09-08T13:45:15.086Z,95096.87
2018-09-08T13:47:44.859Z,95096.16
2018-09-08T13:50:14.822Z,95100.29
2018-09-08T13:52:44.644Z,95101.91
2018-09-08T13:55:14.313Z,95094.05
2018-09-08T13:57:43.944Z,95092.67
2018-09-08T14:00:13.844Z,95093.66
2018-09-08T14:02:43.497Z,95089.87
2018-09-08T14:05:12.868Z,95087.30
2018-09-08T14:07:48.096Z,95087.38
2018-09-08T14:10:17.812Z,95085.69
2018-09-08T14:12:47.233Z,95083.67
2018-09-08T14:15:17.144Z,95083.03
2018-09-08T14:17:46.542Z,95094.09
2018-09-08T14:20:16.227Z,95086.87
2018-09-08T14:22:46.095Z,95091.05
2018-09-08T14:25:15.787Z,95083.19
2018-09-08T14:27:45.557Z,95084.94
2018-09-08T14:30:15.411Z,95081.48
2018-09-08T14:32:45.135Z,95075.09
2018-09-08T14:35:14.734Z,95074.39
2018-09-08T14:37:44.761Z,95082.20
2018-09-08T14:40:14.331Z,95081.43
2018-09-08T14:42:43.887Z,95083.76
2018-09-08T14:45:13.748Z,95082.36
2018-09-08T14:47:43.400Z,95088.59
2018-09-08T14:50:12.796Z,95091.52
2018-09-08T14:52:42.717Z,95091.44
2018-09-08T14:55:12.401Z,95095.13
2018-09-08T14:57:41.812Z,95096.89
2018-09-08T15:00:11.753Z,95108.23
2018-09-08T15:02:41.449Z,95106.11
2018-09-08T15:05:11.056Z,95114.77
2018-09-08T15:07:40.997Z,95110.34
2018-09-08T15:10:10.675Z,95120.42
2018-09-08T15:12:40.087Z,95122.76
2018-09-08T15:15:09.879Z,95128.31
2018-09-08T15:17:39.320Z,95134.41
2018-09-08T15:20:09.198Z,95131.90
2018-09-08T15:22:39.614Z,95133.70
2018-09-08T15:25:09.543Z,95130.17
2018-09-08T15:27:39.161Z,95137.89
2018-09-08T15:30:08.810Z,95132.84
2018-09-08T15:32:38.412Z,95132.27
2018-09-08T15:35:08.103Z,95125.83
2018-09-08T15:37:38.208Z,95130.38
2018-09-08T15:40:07.978Z,95127.66
2018-09-08T15:42:37.529Z,95121.36
2018-09-08T15:45:07.683Z,95120.84
2018-09-08T15:47:37.524Z,95122.36
2018-09-08T15:50:07.385Z,95130.63
2018-09-08T15:52:36.847Z,95128.06
2018-09-08T15:55:06.575Z,95125.73
2018-09-08T15:57:36.171Z,95122.37
2018-09-08T16:00:06.335Z,95129.39
2018-09-08T16:02:35.738Z,95132.38
2018-09-08T16:05:05.637Z,95135.29
2018-09-08T16:07:35.684Z,95137.87
2018-09-08T16:10:05.265Z,95147.89
2018-09-08T16:12:34.883Z,95147.22
2018-09-08T16:15:05.229Z,95139.59
2018-09-08T16:17:34.721Z,95147.29
2018-09-08T16:20:04.577Z,95144.41
2018-09-08T16:22:34.469Z,95142.44
2018-09-08T16:25:04.350Z,95144.84
2018-09-08T16:27:34.287Z,95145.02
2018-09-08T16:30:04.113Z,95149.73
2018-09-08T16:32:33.825Z,95154.22
2018-09-08T16:35:03.187Z,95159.45
2018-09-08T16:37:33.147Z,95161.05
2018-09-08T16:40:02.743Z,95168.30
2018-09-08T16:42:32.233Z,95164.82
2018-09-08T16:45:02.079Z,95167.01
2018-09-08T16:47:31.475Z,95167.39
2018-09-08T16:50:01.371Z,95173.19
2018-09-08T16:52:31.510Z,95178.99
2018-09-08T16:55:01.190Z,95176.42
2018-09-08T16:57:31.022Z,95185.12
2018-09-08T17:00:00.856Z,95189.94
2018-09-08T17:02:30.430Z,95191.59
2018-09-08T17:05:00.474Z,95200.44
2018-09-08T17:07:30.396Z,95209.28
2018-09-08T17:09:59.956Z,95215.02
2018-09-08T17:12:29.688Z,95221.73
2018-09-08T17:15:00.035Z,95229.73
2018-09-08T17:17:29.411Z,95237.02
2018-09-08T17:19:59.025Z,95238.72
2018-09-08T17:22:28.939Z,95234.47
2018-09-08T17:24:58.638Z,95234.88
2018-09-08T17:27:28.457Z,95238.08
2018-09-08T17:29:58.302Z,95241.28
2018-09-08T17:32:27.691Z,95241.74
2018-09-08T17:34:57.079Z,95242.70
2018-09-08T17:37:27.008Z,95244.72
2018-09-08T17:39:56.470Z,95248.56
2018-09-08T17:42:26.133Z,95253.16
2018-09-08T17:44:55.884Z,95245.46
2018-09-08T17:47:25.534Z,95252.97
2018-09-08T17:49:54.994Z,95255.77
2018-09-08T17:52:24.985Z,95261.83
2018-09-08T17:54:54.336Z,95261.48
2018-09-08T17:57:24.320Z,95270.12
2018-09-08T17:59:53.892Z,95273.94
2018-09-08T18:02:23.512Z,95280.47
2018-09-08T18:04:52.918Z,95281.80
2018-09-08T18:07:22.955Z,95284.71
2018-09-08T18:09:52.827Z,95285.21
2018-09-08T18:12:22.402Z,95280.12
2018-09-08T18:14:52.674Z,95286.67
2018-09-08T18:17:22.123Z,95292.35
2018-09-08T18:19:51.771Z,95300.16
2018-09-08T18:22:22.659Z,95301.71
2018-09-08T18:24:52.337Z,95296.34
2018-09-08T18:27:21.917Z,95306.41
2018-09-08T18:29:51.958Z,95307.33
2018-09-08T18:32:21.640Z,95306.85
2018-09-08T18:34:51.171Z,95313.72
2018-09-08T18:37:20.720Z,95312.70
2018-09-08T18:39:50.278Z,95311.51
2018-09-08T18:42:20.010Z,95306.98
2018-09-08T18:44:49.885Z,95310.71
2018-09-08T18:47:19.474Z,95304.80
2018-09-08T18:49:49.036Z,95313.63
2018-09-08T18:52:18.882Z,95313.50
2018-09-08T18:54:48.449Z,95314.95
2018-09-08T18:57:18.316Z,95307.45
2018-09-08T18:59:48.419Z,95308.89
2018-09-08T19:02:17.989Z,95310.42
2018-09-08T19:04:47.855Z,95304.66
2018-09-08T19:07:17.843Z,95296.33
2018-09-08T19:09:55.350Z,95307.44
2018-09-08T19:12:25.415Z,95300.31
2018-09-08T19:15:01.252Z,95302.70
2018-09-08T19:17:31.527Z,95300.78
2018-09-08T19:20:06.284Z,95293.48
2018-09-08T19:22:36.078Z,95295.42
2018-09-08T19:25:05.706Z,95303.57
2018-09-08T19:27:35.377Z,95312.08
2018-09-08T19:30:05.667Z,95306.16
2018-09-08T19:32:35.104Z,95307.53
2018-09-08T19:35:09.645Z,95309.88
2018-09-08T19:37:38.991Z,95312.61
2018-09-08T19:40:14.081Z,95318.84
2018-09-08T19:42:43.491Z,95313.72
2018-09-08T19:45:13.229Z,95315.09
2018-09-08T19:47:48.000Z,95316.27
2018-09-08T19:50:17.714Z,95320.09
2018-09-08T19:52:52.816Z,95318.77
2018-09-08T19:55:22.573Z,95316.83
2018-09-08T19:57:57.423Z,95314.90
2018-09-08T20:00:26.769Z,95316.56
2018-09-08T20:02:59.506Z,95311.41
2018-09-08T20:05:29.211Z,95309.78
2018-09-08T20:07:58.715Z,95315.58
2018-09-08T20:10:28.361Z,95318.84
2018-09-08T20:12:57.726Z,95310.64
2018-09-08T20:15:27.337Z,95323.92
2018-09-08T20:17:56.753Z,95329.46
2018-09-08T20:20:26.528Z,95337.42
2018-09-08T20:22:55.946Z,95334.88
2018-09-08T20:25:25.671Z,95331.83
2018-09-08T20:27:57.259Z,95336.95
2018-09-08T20:30:26.801Z,95341.11
2018-09-08T20:32:56.166Z,95294.36
2018-09-08T20:35:26.243Z,95343.03
2018-09-08T20:37:59.296Z,95342.83
2018-09-08T20:40:28.739Z,95349.16
2018-09-08T20:42:58.244Z,95353.18
2018-09-08T20:45:28.470Z,95354.67
2018-09-08T20:47:58.083Z,95351.06
2018-09-08T20:50:27.682Z,95356.63
2018-09-08T20:52:57.318Z,95350.53
2018-09-08T20:55:26.809Z,95357.39
2018-09-08T20:57:56.244Z,95356.92
2018-09-08T21:00:25.883Z,95356.43
2018-09-08T21:02:55.368Z,95361.94
2018-09-08T21:05:25.131Z,95363.80
2018-09-08T21:07:54.863Z,95361.97
2018-09-08T21:10:24.446Z,95363.95
2018-09-08T21:12:53.750Z,95364.95
2018-09-08T21:15:24.115Z,95371.18
2018-09-08T21:17:53.408Z,95365.88
2018-09-08T21:20:22.977Z,95366.61
2018-09-08T21:22:52.978Z,95374.33
2018-09-08T21:25:22.530Z,95377.98
2018-09-08T21:27:52.131Z,95368.90
2018-09-08T21:30:21.861Z,95371.91
2018-09-08T21:32:51.462Z,95376.66
2018-09-08T21:35:21.042Z,95373.41
2018-09-08T21:37:51.083Z,95371.97
2018-09-08T21:40:20.475Z,95366.14
2018-09-08T21:42:50.069Z,95372.30
2018-09-08T21:45:20.008Z,95371.34
2018-09-08T21:47:49.715Z,95367.70
2018-09-08T21:50:19.298Z,95377.58
2018-09-08T21:52:49.244Z,95373.50
2018-09-08T21:55:18.836Z,95377.30
2018-09-08T22:15:10.986Z,95385.44
2018-09-08T22:17:40.451Z,95379.34
2018-09-08T22:20:10.428Z,95381.61
2018-09-08T22:22:40.046Z,95382.91
2018-09-08T22:25:09.526Z,95385.84
2018-09-08T22:45:01.304Z,95368.34
2018-09-08T22:47:31.194Z,95375.09
2018-09-08T23:07:22.759Z,95371.11
2018-09-08T23:09:52.599Z,95371.32
2018-09-08T23:12:22.413Z,95364.78
2018-09-08T23:14:52.408Z,95362.81
2018-09-08T23:17:21.887Z,95366.23
2018-09-08T23:19:51.161Z,95367.29
2018-09-08T23:22:21.033Z,95363.55
2018-09-08T23:24:50.487Z,95363.64
2018-09-08T23:27:20.403Z,95361.48
2018-09-08T23:29:50.355Z,95356.42
2018-09-08T23:32:20.022Z,95358.66
2018-09-08T23:34:49.749Z,95363.93
2018-09-08T23:37:19.889Z,95359.24
2018-09-08T23:39:49.388Z,95361.04
2018-09-08T23:42:19.273Z,95366.13
2018-09-08T23:44:48.909Z,95365.99
2018-09-08T23:47:18.633Z,95370.88
2018-09-08T23:49:48.336Z,95368.17
2018-09-08T23:52:17.949Z,95365.28
2018-09-08T23:54:47.734Z,95365.52
2018-09-08T23:57:17.145Z,95365.78
2018-09-08T23:59:46.687Z,95364.41
